Time;durP1;ratioP1;P1;durP2;ratioP2;P2;SDS_P1;SDS_P2;PMS_P1;PMS_P2;Temp;Humidity;BMP_temperature;BMP_pressure;BME280_temperature;BME280_humidity;BME280_pressure;Samples;Min_cycle;Max_cycle;Signal;HPM_P1;HPM_P2
2023/09/14 00:01:42;;;;;;;4.47;1.63;;;13.80;99.90;;;;;;5017755;28;20489;-71
2023/09/14 00:04:07;;;;;;;4.15;1.67;;;13.90;99.90;;;;;;5035495;28;20053;-72
2023/09/14 00:06:33;;;;;;;6.55;2.17;;;13.90;99.90;;;;;;5035304;28;20037;-72
2023/09/14 00:08:59;;;;;;;4.85;2.15;;;13.90;99.90;;;;;;5035287;28;20512;-72
2023/09/14 00:11:24;;;;;;;4.82;1.40;;;13.90;99.90;;;;;;5035483;28;20038;-71
2023/09/14 00:13:50;;;;;;;4.25;2.15;;;13.90;99.90;;;;;;5035265;28;20091;-71
2023/09/14 00:16:16;;;;;;;3.45;1.92;;;13.90;99.90;;;;;;5035300;28;20419;-71
2023/09/14 00:18:41;;;;;;;4.35;2.00;;;13.90;99.90;;;;;;5017099;28;20096;-71
2023/09/14 00:21:07;;;;;;;3.92;1.83;;;13.90;99.90;;;;;;5035063;28;20037;-71
2023/09/14 00:23:32;;;;;;;4.32;1.70;;;13.90;99.90;;;;;;5035333;28;20523;-72
2023/09/14 00:25:58;;;;;;;9.40;2.50;;;13.90;99.90;;;;;;5017540;28;20107;-72
2023/09/14 00:28:23;;;;;;;5.68;1.77;;;13.90;99.90;;;;;;5034592;28;20554;-72
2023/09/14 00:30:52;;;;;;;6.72;2.08;;;13.90;99.90;;;;;;5017315;28;20561;-72
2023/09/14 00:33:17;;;;;;;5.38;2.00;;;13.90;99.90;;;;;;5017145;28;20049;-71
2023/09/14 00:35:46;;;;;;;5.72;1.92;;;13.80;99.90;;;;;;5017053;28;20049;-71
2023/09/14 00:38:12;;;;;;;4.03;2.08;;;13.80;99.90;;;;;;5016916;28;20037;-72
2023/09/14 00:40:38;;;;;;;4.07;2.30;;;13.80;99.90;;;;;;5034650;28;20033;-72
2023/09/14 00:43:04;;;;;;;5.00;1.70;;;13.80;99.90;;;;;;5034890;28;20094;-71
2023/09/14 00:45:31;;;;;;;8.05;1.70;;;13.80;99.90;;;;;;5034758;28;20033;-72
2023/09/14 00:47:59;;;;;;;5.60;2.00;;;13.80;99.90;;;;;;5034607;28;20044;-72
2023/09/14 00:50:26;;;;;;;4.15;1.65;;;13.80;99.90;;;;;;5034584;28;20037;-72
2023/09/14 00:52:56;;;;;;;8.57;2.67;;;13.80;99.90;;;;;;5034694;28;20129;-72
2023/09/14 00:55:23;;;;;;;6.55;2.35;;;13.80;99.90;;;;;;5034642;28;20038;-71
2023/09/14 00:57:49;;;;;;;5.95;2.17;;;13.80;99.90;;;;;;5016879;28;20045;-72
2023/09/14 01:00:18;;;;;;;5.70;1.45;;;13.80;99.90;;;;;;5034232;28;20068;-72
2023/09/14 01:02:44;;;;;;;4.47;1.90;;;13.90;99.90;;;;;;5032940;28;20479;-71
2023/09/14 01:05:12;;;;;;;4.18;1.80;;;13.90;99.90;;;;;;5034524;28;20038;-72
2023/09/14 01:07:39;;;;;;;6.45;1.48;;;13.90;99.90;;;;;;5034227;28;20551;-71
2023/09/14 01:10:05;;;;;;;8.05;1.65;;;13.90;99.90;;;;;;5034041;28;20037;-71
2023/09/14 01:12:32;;;;;;;4.35;1.75;;;13.90;99.90;;;;;;5034155;28;20041;-71
2023/09/14 01:15:06;;;;;;;6.22;1.48;;;13.90;99.90;;;;;;5034077;28;20106;-72
2023/09/14 01:17:43;;;;;;;3.42;2.05;;;13.90;99.90;;;;;;5034298;28;20053;-70
2023/09/14 01:20:56;;;;;;;5.22;1.40;;;13.90;99.90;;;;;;5034052;28;20117;-71
2023/09/14 01:23:36;;;;;;;7.13;2.13;;;13.90;99.90;;;;;;4998197;28;20061;-71
2023/09/14 01:26:03;;;;;;;4.75;1.77;;;13.80;99.90;;;;;;5034113;28;20091;-71
2023/09/14 01:28:28;;;;;;;6.95;2.67;;;13.70;99.90;;;;;;5038768;22;20571;-68
2023/09/14 01:30:54;;;;;;;2.65;1.25;;;13.80;99.90;;;;;;5013504;28;20038;-68
2023/09/14 01:33:24;;;;;;;4.18;1.13;;;13.80;99.90;;;;;;5013109;28;20042;-68
2023/09/14 01:35:56;;;;;;;4.20;1.90;;;13.80;99.90;;;;;;5014098;28;20084;-68
2023/09/14 01:38:22;;;;;;;5.00;2.10;;;13.80;99.90;;;;;;5013659;28;20057;-67
2023/09/14 01:40:49;;;;;;;4.45;1.50;;;13.80;99.90;;;;;;5012607;28;20509;-68
2023/09/14 01:43:16;;;;;;;3.08;1.55;;;13.80;99.90;;;;;;5013862;28;20053;-68
2023/09/14 01:45:42;;;;;;;6.47;1.95;;;13.90;99.90;;;;;;5014054;28;20054;-68
2023/09/14 01:48:07;;;;;;;6.35;2.78;;;13.90;99.90;;;;;;5013696;28;20037;-67
2023/09/14 01:50:33;;;;;;;3.80;1.20;;;13.90;99.90;;;;;;5013683;28;20572;-68
2023/09/14 01:52:59;;;;;;;2.38;1.00;;;13.90;99.90;;;;;;5013794;28;20042;-68
2023/09/14 01:55:24;;;;;;;4.90;1.65;;;13.90;99.90;;;;;;5013634;28;20486;-68
2023/09/14 01:57:50;;;;;;;3.03;1.33;;;13.90;99.90;;;;;;5013291;28;20087;-68
2023/09/14 02:00:16;;;;;;;8.32;1.77;;;13.90;99.90;;;;;;5013265;28;20113;-68
2023/09/14 02:02:42;;;;;;;3.20;1.40;;;13.90;99.90;;;;;;5013564;28;20042;-68
2023/09/14 02:05:08;;;;;;;4.07;1.70;;;13.80;99.90;;;;;;5013605;28;20050;-68
2023/09/14 02:07:33;;;;;;;3.28;1.25;;;13.80;99.90;;;;;;5013425;28;20489;-68
2023/09/14 02:09:59;;;;;;;2.30;1.10;;;13.80;99.90;;;;;;5013171;28;20497;-68
2023/09/14 02:12:24;;;;;;;6.15;1.63;;;13.80;99.90;;;;;;5013337;28;20448;-68
2023/09/14 02:14:51;;;;;;;8.75;1.67;;;13.80;99.90;;;;;;5012856;28;20046;-68
2023/09/14 02:17:17;;;;;;;7.30;2.00;;;13.80;99.90;;;;;;5013384;28;20049;-68
2023/09/14 02:19:43;;;;;;;5.78;1.80;;;13.80;99.90;;;;;;5013039;28;20096;-68
2023/09/14 02:22:09;;;;;;;2.35;1.20;;;13.80;99.90;;;;;;5013196;28;20042;-68
2023/09/14 02:24:34;;;;;;;8.27;1.80;;;13.80;99.90;;;;;;5013190;28;20041;-68
2023/09/14 02:27:00;;;;;;;3.22;1.40;;;13.80;99.90;;;;;;5012800;28;20045;-68
2023/09/14 02:29:25;;;;;;;5.15;1.30;;;13.80;99.90;;;;;;5012998;28;20049;-68
2023/09/14 02:31:51;;;;;;;3.35;1.27;;;13.80;99.90;;;;;;5013144;28;20034;-68
2023/09/14 02:34:17;;;;;;;3.00;2.00;;;13.80;99.90;;;;;;5013084;28;20575;-68
2023/09/14 02:36:42;;;;;;;5.07;1.50;;;13.80;99.90;;;;;;5012978;28;20041;-68
2023/09/14 02:39:08;;;;;;;4.45;1.80;;;13.80;99.90;;;;;;5012575;28;20038;-68
2023/09/14 02:41:33;;;;;;;2.75;1.33;;;13.80;99.90;;;;;;5012808;28;20125;-68
2023/09/14 02:43:59;;;;;;;3.85;1.42;;;13.80;99.90;;;;;;5013298;28;20045;-68
2023/09/14 02:46:24;;;;;;;3.92;1.15;;;13.70;99.90;;;;;;5012784;28;20038;-68
2023/09/14 02:48:50;;;;;;;5.78;1.55;;;13.80;99.90;;;;;;5011110;28;20050;-68
2023/09/14 02:51:16;;;;;;;3.60;1.23;;;13.70;99.90;;;;;;5012863;28;20045;-68
2023/09/14 02:53:42;;;;;;;5.10;1.75;;;13.70;99.90;;;;;;5011517;28;20107;-68
2023/09/14 02:56:11;;;;;;;3.55;1.38;;;13.70;99.90;;;;;;5012625;28;20049;-68
2023/09/14 02:58:38;;;;;;;5.50;1.42;;;13.70;99.90;;;;;;5012530;28;20049;-68
2023/09/14 03:01:09;;;;;;;5.00;1.40;;;13.60;99.90;;;;;;5012889;28;20065;-68
2023/09/14 03:03:36;;;;;;;3.53;1.80;;;13.60;99.90;;;;;;5012722;28;20048;-68
2023/09/14 03:06:01;;;;;;;4.38;1.45;;;13.50;99.90;;;;;;5012776;28;20060;-68
2023/09/14 03:08:27;;;;;;;5.68;1.80;;;13.50;99.90;;;;;;5011959;28;20512;-68
2023/09/14 03:10:53;;;;;;;6.93;1.38;;;13.40;99.90;;;;;;5012298;28;20053;-68
2023/09/14 03:13:18;;;;;;;5.07;2.00;;;13.40;99.90;;;;;;5012284;28;20046;-68
2023/09/14 03:15:44;;;;;;;4.55;1.50;;;13.30;99.90;;;;;;5012413;28;20125;-68
2023/09/14 03:18:09;;;;;;;5.03;1.75;;;13.20;99.90;;;;;;5012051;28;20037;-68
2023/09/14 03:20:35;;;;;;;4.78;1.70;;;13.20;99.90;;;;;;5011939;28;20041;-68
2023/09/14 03:23:02;;;;;;;3.33;1.73;;;13.20;99.90;;;;;;5011986;28;20037;-68
2023/09/14 03:25:28;;;;;;;4.88;1.73;;;13.20;99.90;;;;;;5011360;28;20077;-68
2023/09/14 03:27:54;;;;;;;2.95;1.50;;;13.10;99.90;;;;;;5010659;28;20044;-68
2023/09/14 03:30:19;;;;;;;7.13;2.25;;;13.10;99.90;;;;;;5012037;28;20113;-68
2023/09/14 03:32:45;;;;;;;4.93;1.35;;;13.00;99.90;;;;;;5012144;28;20045;-68
2023/09/14 03:35:10;;;;;;;5.20;1.30;;;13.00;99.90;;;;;;5012075;28;20409;-68
2023/09/14 03:37:36;;;;;;;5.53;2.20;;;13.00;99.90;;;;;;5010909;28;20058;-68
2023/09/14 03:40:05;;;;;;;6.47;1.92;;;12.90;99.90;;;;;;5011440;28;20417;-67
2023/09/14 03:42:31;;;;;;;3.72;1.90;;;12.80;99.90;;;;;;5012098;28;20042;-68
2023/09/14 03:44:56;;;;;;;3.83;1.60;;;12.80;99.90;;;;;;5012103;28;20046;-68
2023/09/14 03:47:22;;;;;;;2.90;1.50;;;12.80;99.90;;;;;;5010728;28;20122;-68
2023/09/14 03:49:48;;;;;;;4.80;2.05;;;12.80;99.90;;;;;;5011679;28;20038;-68
2023/09/14 03:52:14;;;;;;;4.72;1.88;;;12.70;99.90;;;;;;5011805;28;20441;-68
2023/09/14 03:54:39;;;;;;;5.00;1.70;;;12.70;99.90;;;;;;5011709;28;20501;-68
2023/09/14 03:57:14;;;;;;;3.90;2.10;;;12.60;99.90;;;;;;5028820;28;20505;-67
2023/09/14 03:59:43;;;;;;;2.13;1.23;;;12.60;99.90;;;;;;5031309;28;20038;-67
2023/09/14 04:02:10;;;;;;;4.60;1.45;;;12.50;99.90;;;;;;5031471;28;20092;-68
2023/09/14 04:04:35;;;;;;;3.45;2.25;;;12.50;99.90;;;;;;5031528;28;20033;-69
2023/09/14 04:07:01;;;;;;;5.75;1.95;;;12.50;99.90;;;;;;5031214;28;20088;-69
2023/09/14 04:09:29;;;;;;;5.63;1.90;;;12.40;99.90;;;;;;5031322;28;20040;-68
2023/09/14 04:11:56;;;;;;;4.07;2.70;;;12.40;99.90;;;;;;5030289;28;20041;-69
2023/09/14 04:14:21;;;;;;;4.55;1.83;;;12.40;99.90;;;;;;5031545;28;20042;-69
2023/09/14 04:16:47;;;;;;;3.90;1.77;;;12.30;99.90;;;;;;5031409;28;20120;-69
2023/09/14 04:19:16;;;;;;;4.63;1.67;;;12.20;99.90;;;;;;5031013;28;20447;-68
2023/09/14 04:21:43;;;;;;;3.17;1.50;;;12.20;99.90;;;;;;5031157;28;20095;-69
2023/09/14 04:24:09;;;;;;;6.40;2.00;;;12.20;99.90;;;;;;5031547;28;20049;-68
2023/09/14 04:26:35;;;;;;;3.30;1.88;;;12.20;99.90;;;;;;5031353;28;20044;-69
2023/09/14 04:29:00;;;;;;;5.55;1.77;;;12.20;99.90;;;;;;5030894;28;20037;-68
2023/09/14 04:31:26;;;;;;;5.53;2.17;;;12.10;99.90;;;;;;5029970;28;20539;-69
2023/09/14 04:33:52;;;;;;;2.55;1.70;;;12.10;99.90;;;;;;5031178;28;20044;-69
2023/09/14 04:36:17;;;;;;;4.18;1.98;;;12.10;99.90;;;;;;5031034;28;20404;-68
2023/09/14 04:38:43;;;;;;;6.28;2.05;;;12.00;99.90;;;;;;5033318;28;20045;-68
2023/09/14 04:41:09;;;;;;;2.92;1.85;;;12.00;99.90;;;;;;5034961;28;20049;-68
2023/09/14 04:43:34;;;;;;;4.97;1.70;;;12.00;99.90;;;;;;5034900;28;20073;-68
2023/09/14 04:46:01;;;;;;;2.95;1.98;;;11.90;99.90;;;;;;5034676;28;20041;-66
2023/09/14 04:48:27;;;;;;;2.75;1.40;;;11.90;99.90;;;;;;5032916;28;20053;-67
2023/09/14 04:50:56;;;;;;;5.05;1.80;;;11.90;99.90;;;;;;5034522;28;20112;-66
2023/09/14 04:53:21;;;;;;;3.60;1.58;;;11.90;99.90;;;;;;5034649;28;20066;-67
2023/09/14 04:55:47;;;;;;;4.13;1.85;;;11.80;99.90;;;;;;5034449;28;20654;-68
2023/09/14 04:58:12;;;;;;;4.95;1.90;;;11.80;99.90;;;;;;5034389;28;20041;-69
2023/09/14 05:00:38;;;;;;;4.63;2.00;;;11.80;99.90;;;;;;5024405;28;20072;-68
2023/09/14 05:03:04;;;;;;;5.30;1.70;;;11.80;99.90;;;;;;5011234;28;20042;-68
2023/09/14 05:05:32;;;;;;;3.30;1.50;;;11.70;99.90;;;;;;5014303;28;20045;-68
2023/09/14 05:07:58;;;;;;;4.93;1.90;;;11.70;99.90;;;;;;5014372;28;20535;-68
2023/09/14 05:10:25;;;;;;;4.53;1.90;;;11.70;99.90;;;;;;5014393;28;20130;-69
2023/09/14 05:12:51;;;;;;;3.50;1.90;;;11.70;99.90;;;;;;5014603;28;20046;-68
2023/09/14 05:15:17;;;;;;;4.30;2.63;;;11.60;99.90;;;;;;5019336;28;20414;-69
2023/09/14 05:17:43;;;;;;;5.25;1.58;;;11.60;99.90;;;;;;5024647;28;20053;-69
2023/09/14 05:20:10;;;;;;;2.65;1.75;;;11.60;99.90;;;;;;5012530;28;20042;-68
2023/09/14 05:22:38;;;;;;;4.10;1.85;;;11.60;99.90;;;;;;5014162;28;20497;-68
2023/09/14 05:25:06;;;;;;;5.15;1.80;;;11.60;99.90;;;;;;5012995;28;20052;-68
2023/09/14 05:27:39;;;;;;;5.68;2.00;;;11.70;99.90;;;;;;5013940;28;20719;-68
2023/09/14 05:30:06;;;;;;;5.57;2.33;;;11.70;99.90;;;;;;5014322;28;20181;-69
2023/09/14 05:32:32;;;;;;;5.20;2.47;;;11.70;99.90;;;;;;5014680;28;20128;-69
2023/09/14 05:34:58;;;;;;;4.43;1.88;;;11.70;99.90;;;;;;5014419;28;20124;-67
2023/09/14 05:37:23;;;;;;;5.68;1.67;;;11.70;99.90;;;;;;5014747;28;20042;-67
2023/09/14 05:39:49;;;;;;;6.13;1.58;;;11.70;99.90;;;;;;5014370;28;20048;-67
2023/09/14 05:42:14;;;;;;;3.97;1.80;;;11.70;99.90;;;;;;5014788;28;20445;-68
2023/09/14 05:44:40;;;;;;;4.50;1.70;;;11.70;99.90;;;;;;5014772;28;20045;-67
2023/09/14 05:47:05;;;;;;;3.88;1.90;;;11.80;99.90;;;;;;5014250;28;20038;-67
2023/09/14 05:49:31;;;;;;;3.63;1.52;;;11.90;99.90;;;;;;5013091;28;20037;-67
2023/09/14 05:51:58;;;;;;;6.35;2.08;;;11.90;99.90;;;;;;5014077;28;20057;-67
2023/09/14 05:54:24;;;;;;;3.55;1.92;;;11.90;99.90;;;;;;5013961;28;20129;-67
2023/09/14 05:56:49;;;;;;;6.15;1.80;;;11.90;99.90;;;;;;5013556;28;20121;-67
2023/09/14 05:59:16;;;;;;;2.95;1.77;;;12.00;99.90;;;;;;5013326;28;20092;-67
2023/09/14 06:01:42;;;;;;;4.85;2.00;;;12.10;99.90;;;;;;5013381;28;20592;-68
2023/09/14 06:04:08;;;;;;;3.10;1.38;;;12.10;99.90;;;;;;5013792;28;20056;-67
2023/09/14 06:06:33;;;;;;;2.83;1.55;;;12.10;99.90;;;;;;5012563;28;20120;-67
2023/09/14 06:08:59;;;;;;;5.70;2.45;;;12.20;99.90;;;;;;5013070;28;20110;-67
2023/09/14 06:11:27;;;;;;;5.07;1.77;;;12.30;99.90;;;;;;5013486;28;20038;-67
2023/09/14 06:13:53;;;;;;;4.05;2.03;;;12.30;99.90;;;;;;5013318;28;20566;-67
2023/09/14 06:16:19;;;;;;;5.28;1.80;;;12.40;99.90;;;;;;5013302;28;20038;-68
2023/09/14 06:18:44;;;;;;;7.43;2.10;;;12.50;99.90;;;;;;5012924;28;20406;-69
2023/09/14 06:21:10;;;;;;;6.30;2.00;;;12.60;99.90;;;;;;5013131;28;20038;-68
2023/09/14 06:23:35;;;;;;;4.03;1.67;;;12.70;99.90;;;;;;5013223;28;20049;-68
2023/09/14 06:26:01;;;;;;;3.80;2.50;;;12.90;99.90;;;;;;5013223;28;20033;-67
2023/09/14 06:28:26;;;;;;;4.75;1.85;;;13.20;99.90;;;;;;5011335;28;20543;-67
2023/09/14 06:30:52;;;;;;;5.30;1.83;;;13.40;99.90;;;;;;5011725;28;20052;-68
2023/09/14 06:33:18;;;;;;;6.65;2.08;;;13.60;99.90;;;;;;5012962;28;20034;-67
2023/09/14 06:35:43;;;;;;;5.45;1.67;;;13.70;99.90;;;;;;5011859;28;20085;-67
2023/09/14 06:38:09;;;;;;;3.85;1.90;;;13.80;99.90;;;;;;5012841;28;20076;-67
2023/09/14 06:40:35;;;;;;;5.97;1.90;;;13.90;99.90;;;;;;5012734;28;20050;-68
2023/09/14 06:43:00;;;;;;;4.93;2.38;;;14.10;99.90;;;;;;5011461;28;20034;-67
2023/09/14 06:45:26;;;;;;;6.80;1.92;;;14.20;99.90;;;;;;5012707;28;20030;-68
2023/09/14 06:47:52;;;;;;;7.53;1.90;;;14.30;99.90;;;;;;5012181;28;20042;-67
2023/09/14 06:50:17;;;;;;;8.43;1.98;;;14.40;99.90;;;;;;5012365;28;20037;-67
2023/09/14 06:52:43;;;;;;;2.53;1.40;;;14.50;99.90;;;;;;5012843;28;20125;-68
2023/09/14 06:55:09;;;;;;;3.70;1.70;;;14.70;99.90;;;;;;5011459;28;20517;-68
2023/09/14 06:57:35;;;;;;;4.15;1.60;;;15.00;99.90;;;;;;5012498;28;20042;-67
2023/09/14 07:00:01;;;;;;;7.15;2.47;;;15.30;99.90;;;;;;5012277;28;20049;-67
2023/09/14 07:02:27;;;;;;;5.70;2.03;;;15.40;99.90;;;;;;5012362;28;20045;-68
2023/09/14 07:04:55;;;;;;;3.95;1.65;;;15.60;99.90;;;;;;5012459;28;20040;-68
2023/09/14 07:07:20;;;;;;;3.03;1.52;;;15.70;99.90;;;;;;5012515;28;20033;-68
2023/09/14 07:09:46;;;;;;;7.18;1.58;;;15.80;99.90;;;;;;5009229;28;20044;-68
2023/09/14 07:12:11;;;;;;;4.05;1.50;;;16.10;99.90;;;;;;5012353;28;20044;-68
2023/09/14 07:14:37;;;;;;;6.25;1.45;;;16.40;99.90;;;;;;5012311;28;20679;-68
2023/09/14 07:17:03;;;;;;;7.10;2.00;;;16.70;99.90;;;;;;5012378;28;20038;-68
2023/09/14 07:19:29;;;;;;;3.45;1.52;;;16.90;99.90;;;;;;5012105;28;20046;-68
2023/09/14 07:21:55;;;;;;;5.82;2.05;;;17.20;99.90;;;;;;5012269;28;20052;-68
2023/09/14 07:24:23;;;;;;;5.07;1.58;;;17.50;99.90;;;;;;5011962;28;20042;-68
2023/09/14 07:26:49;;;;;;;2.22;1.25;;;17.80;99.90;;;;;;5011513;28;20049;-68
2023/09/14 07:29:19;;;;;;;3.35;1.33;;;17.90;99.90;;;;;;5049140;22;20041;-72
2023/09/14 07:31:46;;;;;;;5.35;1.35;;;18.20;99.90;;;;;;5030392;28;20034;-72
2023/09/14 07:34:11;;;;;;;4.25;1.27;;;18.40;99.90;;;;;;5031637;28;20073;-72
2023/09/14 07:36:37;;;;;;;3.20;1.02;;;18.50;99.90;;;;;;5031914;28;20072;-72
2023/09/14 07:39:02;;;;;;;4.28;1.50;;;18.70;99.90;;;;;;5031474;28;20084;-71
2023/09/14 07:41:28;;;;;;;3.28;1.35;;;18.90;99.90;;;;;;5031249;28;20041;-71
2023/09/14 07:43:54;;;;;;;4.25;1.40;;;19.10;99.90;;;;;;5030467;28;20049;-71
2023/09/14 07:46:19;;;;;;;5.00;1.55;;;19.20;99.90;;;;;;5031932;28;20049;-71
2023/09/14 07:48:45;;;;;;;6.57;1.30;;;19.30;99.90;;;;;;5031495;28;20033;-72
2023/09/14 07:51:10;;;;;;;3.83;1.30;;;19.50;99.90;;;;;;5031729;28;20042;-71
2023/09/14 07:53:36;;;;;;;4.90;1.40;;;19.60;99.90;;;;;;5031758;28;20045;-72
2023/09/14 07:56:02;;;;;;;7.28;2.13;;;19.70;99.90;;;;;;5031609;28;20045;-71
2023/09/14 07:58:27;;;;;;;7.18;1.35;;;19.90;99.90;;;;;;5030892;28;20069;-71
2023/09/14 08:00:53;;;;;;;4.35;1.10;;;19.70;99.90;;;;;;5031364;28;20037;-72
2023/09/14 08:03:19;;;;;;;4.43;1.10;;;19.90;99.90;;;;;;5031719;28;20042;-72
2023/09/14 08:05:44;;;;;;;2.53;0.80;;;20.10;99.90;;;;;;5030251;28;20504;-72
2023/09/14 08:08:10;;;;;;;2.67;0.77;;;20.20;99.90;;;;;;5031402;28;20073;-72
2023/09/14 08:10:36;;;;;;;2.80;1.50;;;20.20;99.90;;;;;;5031330;28;20056;-72
2023/09/14 08:13:02;;;;;;;6.03;1.20;;;20.50;99.90;;;;;;5032818;28;20049;-72
2023/09/14 08:15:28;;;;;;;3.85;1.33;;;20.40;99.10;;;;;;5035521;28;20041;-72
2023/09/14 08:17:54;;;;;;;4.82;1.17;;;20.40;98.00;;;;;;5035424;28;20088;-72
2023/09/14 08:20:19;;;;;;;5.75;1.50;;;20.20;97.00;;;;;;5017238;28;20041;-72
2023/09/14 08:22:45;;;;;;;4.90;1.00;;;20.20;96.90;;;;;;5035163;28;20041;-72
2023/09/14 08:25:13;;;;;;;3.67;1.13;;;20.00;97.20;;;;;;5033932;28;20176;-72
2023/09/14 08:27:40;;;;;;;3.78;0.82;;;20.00;97.50;;;;;;5034729;28;20171;-72
2023/09/14 08:30:10;;;;;;;2.70;1.10;;;20.00;98.20;;;;;;5034650;28;20120;-72
2023/09/14 08:32:35;;;;;;;3.83;1.15;;;20.00;96.80;;;;;;5033766;28;20444;-72
2023/09/14 08:35:19;;;;;;;6.30;1.50;;;20.30;98.50;;;;;;5034989;28;20033;-72
2023/09/14 08:37:45;;;;;;;6.68;1.27;;;20.60;96.90;;;;;;5034883;28;20047;-72
2023/09/14 08:40:13;;;;;;;4.70;1.48;;;20.90;98.10;;;;;;5034449;28;20041;-72
2023/09/14 08:42:40;;;;;;;8.25;1.10;;;20.80;97.20;;;;;;5034969;28;20042;-71
2023/09/14 08:45:10;;;;;;;4.95;1.63;;;21.00;96.40;;;;;;5025509;28;20042;-72
2023/09/14 08:47:39;;;;;;;5.50;1.25;;;21.00;96.30;;;;;;5024164;28;20542;-72
2023/09/14 08:50:05;;;;;;;5.03;0.90;;;21.10;96.10;;;;;;5025200;28;20045;-72
2023/09/14 08:52:37;;;;;;;6.05;1.70;;;21.20;96.10;;;;;;5013625;28;20045;-72
2023/09/14 08:55:03;;;;;;;9.50;1.65;;;21.40;93.90;;;;;;5014903;28;20042;-71
2023/09/14 08:57:29;;;;;;;11.90;2.42;;;21.40;94.50;;;;;;5013849;28;20129;-72
2023/09/14 09:00:00;;;;;;;4.25;1.33;;;21.50;93.90;;;;;;5014469;28;20041;-71
2023/09/14 09:02:27;;;;;;;2.35;1.15;;;21.40;90.40;;;;;;5014779;28;20049;-71
2023/09/14 09:04:53;;;;;;;5.03;1.65;;;21.30;91.90;;;;;;5014767;28;20061;-72
2023/09/14 09:07:20;;;;;;;7.10;2.20;;;20.80;93.40;;;;;;5014468;28;20038;-71
2023/09/14 09:09:49;;;;;;;8.40;1.65;;;20.80;94.80;;;;;;5014472;28;20038;-70
2023/09/14 09:12:14;;;;;;;10.68;3.17;;;20.90;96.00;;;;;;5014726;28;20040;-71
2023/09/14 09:14:40;;;;;;;3.75;1.30;;;20.60;94.70;;;;;;5014590;28;20045;-71
2023/09/14 09:17:06;;;;;;;6.95;1.88;;;20.60;93.50;;;;;;5014226;28;20041;-71
2023/09/14 09:19:51;;;;;;;3.70;1.10;;;20.60;94.60;;;;;;5013942;28;20048;-71
2023/09/14 09:22:17;;;;;;;4.07;1.10;;;20.30;93.00;;;;;;5014347;28;20127;-71
2023/09/14 09:24:43;;;;;;;5.72;1.05;;;20.20;94.00;;;;;;5011957;28;20074;-70
2023/09/14 09:27:27;;;;;;;5.55;2.08;;;20.30;93.00;;;;;;5014131;28;20034;-70
2023/09/14 09:30:00;;;;;;;4.50;1.17;;;20.40;88.10;;;;;;5024337;28;20507;-70
2023/09/14 09:32:25;;;;;;;5.65;1.30;;;20.50;88.70;;;;;;5022831;28;20038;-70
2023/09/14 09:34:51;;;;;;;3.95;1.35;;;20.60;90.00;;;;;;5022678;28;20044;-70
2023/09/14 09:37:17;;;;;;;3.30;1.35;;;20.50;87.50;;;;;;5023772;28;20033;-70
2023/09/14 09:39:44;;;;;;;3.17;1.02;;;20.40;86.30;;;;;;5023056;28;20119;-70
2023/09/14 09:42:12;;;;;;;3.60;1.60;;;20.30;90.50;;;;;;5026988;28;20065;-69
2023/09/14 09:44:39;;;;;;;4.82;1.30;;;20.10;89.70;;;;;;5018844;28;20034;-69
2023/09/14 09:47:05;;;;;;;4.43;1.85;;;20.20;89.20;;;;;;5013816;28;20515;-69
2023/09/14 09:49:31;;;;;;;3.95;1.45;;;20.20;88.00;;;;;;5013760;28;20488;-69
2023/09/14 09:51:57;;;;;;;3.65;1.45;;;20.10;87.40;;;;;;5012634;28;20055;-69
2023/09/14 09:54:24;;;;;;;7.50;1.92;;;20.10;88.10;;;;;;5017600;28;20048;-69
2023/09/14 09:56:51;;;;;;;7.45;1.42;;;20.30;90.10;;;;;;5022801;28;20116;-69
2023/09/14 09:59:17;;;;;;;3.92;1.10;;;20.30;92.30;;;;;;5021942;28;20042;-69
2023/09/14 10:01:47;;;;;;;5.38;1.38;;;20.30;91.00;;;;;;5005387;28;20098;-69
2023/09/14 10:04:16;;;;;;;4.97;1.60;;;20.40;90.20;;;;;;5024228;28;20034;-69
2023/09/14 10:06:59;;;;;;;2.92;1.17;;;20.30;85.60;;;;;;5021788;28;20049;-70
2023/09/14 10:09:26;;;;;;;3.20;0.95;;;20.20;83.10;;;;;;5020815;28;20065;-69
2023/09/14 10:11:53;;;;;;;4.53;1.40;;;20.20;85.50;;;;;;5013619;28;20046;-69
2023/09/14 10:14:21;;;;;;;3.88;1.20;;;20.30;88.20;;;;;;5013642;28;20058;-69
2023/09/14 10:16:50;;;;;;;5.70;1.65;;;20.30;90.90;;;;;;5013519;28;20413;-69
2023/09/14 10:19:17;;;;;;;7.32;1.77;;;20.00;91.60;;;;;;5012930;28;20046;-69
2023/09/14 10:21:46;;;;;;;3.60;1.10;;;19.70;93.60;;;;;;5013149;28;20069;-69
2023/09/14 10:24:12;;;;;;;10.45;2.10;;;19.30;94.30;;;;;;5011895;28;20049;-70
2023/09/14 10:26:39;;;;;;;4.47;1.30;;;19.10;97.00;;;;;;5013188;28;20038;-70
2023/09/14 10:29:07;;;;;;;4.57;1.60;;;18.90;98.00;;;;;;5011668;28;20053;-69
2023/09/14 10:31:34;;;;;;;3.25;1.30;;;19.10;98.50;;;;;;5013170;28;20042;-69
2023/09/14 10:34:00;;;;;;;5.93;1.88;;;19.10;99.10;;;;;;5013056;28;20493;-69
2023/09/14 10:36:31;;;;;;;4.55;1.30;;;19.10;97.70;;;;;;5012796;28;20041;-69
2023/09/14 10:39:05;;;;;;;4.57;1.58;;;19.10;96.80;;;;;;5011498;28;20493;-69
2023/09/14 10:41:31;;;;;;;4.72;1.42;;;19.30;97.20;;;;;;5013090;28;20100;-69
2023/09/14 10:43:57;;;;;;;5.47;1.52;;;19.30;96.70;;;;;;5013015;28;20409;-69
2023/09/14 10:46:29;;;;;;;2.90;1.35;;;19.20;95.80;;;;;;5012838;28;20510;-69
2023/09/14 10:48:56;;;;;;;3.28;1.48;;;19.30;93.60;;;;;;5011579;28;20104;-69
2023/09/14 10:51:23;;;;;;;5.15;1.70;;;19.30;94.50;;;;;;5011465;28;20521;-69
2023/09/14 10:53:49;;;;;;;3.58;1.20;;;19.20;95.50;;;;;;5012674;28;20121;-69
2023/09/14 10:56:30;;;;;;;4.43;1.38;;;19.20;95.90;;;;;;5011281;28;20042;-69
2023/09/14 10:59:14;;;;;;;3.95;1.30;;;19.10;94.60;;;;;;5012388;28;20065;-68
2023/09/14 11:01:47;;;;;;;4.57;1.05;;;19.00;94.80;;;;;;5012456;28;20048;-70
2023/09/14 11:04:17;;;;;;;5.03;1.25;;;19.00;94.70;;;;;;5012651;28;20048;-72
2023/09/14 11:06:51;;;;;;;4.18;1.40;;;19.00;95.00;;;;;;5012528;28;20042;-72
2023/09/14 11:09:18;;;;;;;4.43;1.50;;;19.00;93.20;;;;;;5012127;28;20129;-75
2023/09/14 11:11:45;;;;;;;3.90;1.58;;;19.00;93.80;;;;;;5011197;28;20528;-72
2023/09/14 11:14:13;;;;;;;5.05;1.45;;;19.10;93.80;;;;;;5011211;28;20522;-72
2023/09/14 11:16:45;;;;;;;5.63;1.50;;;19.10;94.30;;;;;;5011384;28;20061;-72
2023/09/14 11:19:31;;;;;;;7.13;1.77;;;19.20;94.10;;;;;;5012110;28;20112;-71
2023/09/14 11:22:14;;;;;;;3.25;1.35;;;19.20;96.10;;;;;;5010826;28;20103;-72
2023/09/14 11:24:39;;;;;;;6.07;1.45;;;19.10;97.10;;;;;;5012106;28;20037;-72
2023/09/14 11:27:05;;;;;;;5.13;1.58;;;19.20;97.50;;;;;;5010908;28;20405;-72
2023/09/14 11:29:32;;;;;;;10.70;3.05;;;19.10;97.30;;;;;;5011751;28;20045;-72
2023/09/14 11:32:03;;;;;;;6.60;1.50;;;19.00;97.40;;;;;;5012251;28;20425;-72
2023/09/14 11:34:31;;;;;;;6.00;1.50;;;19.10;95.90;;;;;;5010775;28;20045;-72
2023/09/14 11:37:00;;;;;;;4.88;1.48;;;19.10;96.50;;;;;;5012120;28;20421;-72
2023/09/14 11:39:26;;;;;;;12.73;2.10;;;19.00;97.20;;;;;;5010351;28;20045;-72
2023/09/14 11:41:54;;;;;;;6.25;1.92;;;18.80;98.30;;;;;;5010660;28;20092;-72
2023/09/14 11:44:21;;;;;;;3.42;1.35;;;18.80;99.00;;;;;;5010936;28;20520;-72
2023/09/14 11:46:48;;;;;;;5.20;1.50;;;18.90;99.10;;;;;;5010071;28;20081;-72
2023/09/14 11:49:16;;;;;;;6.68;1.80;;;18.90;98.50;;;;;;5010628;28;20042;-72
2023/09/14 11:51:42;;;;;;;10.30;2.03;;;19.00;96.70;;;;;;5011875;28;20049;-71
2023/09/14 11:54:08;;;;;;;3.97;1.83;;;19.10;96.30;;;;;;4994110;28;20124;-72
2023/09/14 11:56:35;;;;;;;7.20;1.70;;;19.10;95.20;;;;;;5011826;28;20113;-72
2023/09/14 11:59:02;;;;;;;6.28;1.80;;;18.90;94.20;;;;;;5010248;28;20041;-72
2023/09/14 12:01:34;;;;;;;5.90;2.13;;;18.90;96.10;;;;;;5010730;28;20081;-73
2023/09/14 12:04:02;;;;;;;3.38;1.45;;;18.80;97.80;;;;;;5011951;28;20041;-72
2023/09/14 12:06:28;;;;;;;6.32;2.28;;;18.80;99.80;;;;;;5010523;28;20116;-72
2023/09/14 12:08:54;;;;;;;5.43;1.60;;;18.70;99.90;;;;;;5011741;28;20118;-72
2023/09/14 12:11:22;;;;;;;3.97;1.20;;;18.80;99.90;;;;;;5010437;28;20040;-72
2023/09/14 12:13:52;;;;;;;5.43;1.73;;;18.90;97.20;;;;;;5011781;28;20041;-72
2023/09/14 12:16:25;;;;;;;4.82;1.60;;;19.00;96.10;;;;;;5010704;28;20050;-73
2023/09/14 12:18:52;;;;;;;5.72;1.55;;;19.00;97.90;;;;;;5010258;28;20123;-72
2023/09/14 12:21:21;;;;;;;5.00;1.70;;;19.00;97.10;;;;;;5009919;28;20108;-72
2023/09/14 12:23:49;;;;;;;6.40;2.33;;;19.10;96.80;;;;;;5010273;28;20042;-71
2023/09/14 12:26:19;;;;;;;6.07;1.60;;;19.20;97.50;;;;;;5010682;28;20104;-72
2023/09/14 12:28:49;;;;;;;5.60;1.60;;;19.30;95.70;;;;;;5009736;28;20049;-72
2023/09/14 12:31:15;;;;;;;6.00;2.17;;;19.30;95.60;;;;;;5010495;28;20064;-72
2023/09/14 12:33:43;;;;;;;3.75;1.63;;;19.40;93.70;;;;;;5011448;28;20508;-72
2023/09/14 12:36:11;;;;;;;4.95;2.13;;;19.50;92.10;;;;;;5010217;28;20049;-72
2023/09/14 12:38:40;;;;;;;4.93;1.83;;;19.50;91.30;;;;;;5011220;28;20041;-72
2023/09/14 12:41:06;;;;;;;12.02;2.75;;;19.50;91.00;;;;;;5010413;28;20082;-72
2023/09/14 12:43:33;;;;;;;4.90;2.15;;;19.30;87.70;;;;;;5010231;28;20038;-72
2023/09/14 12:45:58;;;;;;;5.18;2.00;;;19.30;87.00;;;;;;4993706;28;20042;-72